Time;durP1;ratioP1;P1;durP2;ratioP2;P2;SDS_P1;SDS_P2;PMS_P1;PMS_P2;Temp;Humidity;BMP_temperature;BMP_pressure;BME280_temperature;BME280_humidity;BME280_pressure;Samples;Min_cycle;Max_cycle;Signal;HPM_P1;HPM_P2
2023/06/30 00:00:08;;;;;;;5.97;3.67;;;;;;;24.12;57.69;98217.03;5022902;27;104104;-69
2023/06/30 00:02:39;;;;;;;4.35;3.80;;;;;;;23.76;58.90;98213.88;5001214;27;104635;-69
2023/06/30 00:05:08;;;;;;;6.28;4.00;;;;;;;23.40;59.65;98219.63;5002147;27;102912;-69
2023/06/30 00:07:36;;;;;;;6.13;3.90;;;;;;;23.58;59.49;98219.84;5027069;27;103905;-69
2023/06/30 00:10:06;;;;;;;7.37;4.50;;;;;;;23.06;61.07;98217.81;5030365;27;103285;-69
2023/06/30 00:12:34;;;;;;;8.40;4.32;;;;;;;23.13;60.80;98220.56;5003868;27;103308;-69
2023/06/30 00:15:03;;;;;;;6.63;3.97;;;;;;;23.22;60.28;98217.47;5029099;27;102740;-69
2023/06/30 00:17:30;;;;;;;6.57;4.13;;;;;;;23.32;60.11;98201.75;5017706;27;104062;-69
2023/06/30 00:20:05;;;;;;;4.68;3.80;;;;;;;23.62;59.37;98205.78;5019908;27;104336;-69
2023/06/30 00:22:35;;;;;;;6.07;4.07;;;;;;;23.31;60.39;98199.25;5010562;27;104169;-69
2023/06/30 00:25:04;;;;;;;7.53;4.20;;;;;;;23.43;59.67;98198.50;5026156;27;103283;-69
2023/06/30 00:27:31;;;;;;;4.93;3.47;;;;;;;23.88;58.25;98196.91;5002485;27;104310;-69
2023/06/30 00:29:59;;;;;;;6.20;4.22;;;;;;;23.52;59.73;98194.56;5004645;27;104299;-69
2023/06/30 00:32:31;;;;;;;7.25;4.13;;;;;;;23.54;60.45;98179.03;5024978;27;103196;-69
2023/06/30 00:34:59;;;;;;;5.28;3.70;;;;;;;23.42;60.52;98179.81;5005953;27;103421;-69
2023/06/30 00:37:29;;;;;;;8.27;4.40;;;;;;;23.29;60.74;98174.38;5004728;27;102809;-69
2023/06/30 00:39:57;;;;;;;7.95;4.05;;;;;;;23.28;60.69;98170.84;5011977;27;104213;-69
2023/06/30 00:42:25;;;;;;;5.93;4.40;;;;;;;22.96;61.67;98168.91;5006673;27;106440;-69
2023/06/30 00:44:54;;;;;;;5.53;4.18;;;;;;;23.01;61.60;98161.03;5010945;27;102595;-69
2023/06/30 00:47:22;;;;;;;5.85;4.40;;;;;;;22.78;62.65;98165.91;5026415;27;103703;-69
2023/06/30 00:49:53;;;;;;;5.68;4.20;;;;;;;22.76;62.12;98160.75;5004242;27;103332;-69
2023/06/30 00:52:21;;;;;;;5.45;4.18;;;;;;;22.81;61.59;98162.81;5024898;27;103217;-69
2023/06/30 00:54:53;;;;;;;5.80;3.58;;;;;;;23.39;59.76;98154.09;5012599;27;102724;-69
2023/06/30 00:57:21;;;;;;;3.42;3.13;;;;;;;23.56;59.68;98149.16;5004443;27;104561;-69
2023/06/30 00:59:50;;;;;;;5.90;3.75;;;;;;;23.69;58.58;98153.72;5010561;27;106095;-69
2023/06/30 01:02:23;;;;;;;5.10;4.15;;;;;;;23.43;59.63;98144.59;5006680;27;106163;-69
2023/06/30 01:04:57;;;;;;;6.60;4.70;;;;;;;22.54;62.81;98151.03;5010961;27;102886;-69
2023/06/30 01:07:35;;;;;;;5.45;4.32;;;;;;;22.79;62.04;98159.50;5006858;27;103648;-69
2023/06/30 01:10:11;;;;;;;6.85;4.00;;;;;;;23.35;59.86;98152.84;5023774;27;104088;-69
2023/06/30 01:12:40;;;;;;;6.10;4.40;;;;;;;23.34;60.02;98140.38;5026376;27;102958;-69
2023/06/30 01:15:13;;;;;;;4.82;3.67;;;;;;;23.41;59.93;98145.84;5004352;27;102713;-69
2023/06/30 01:17:48;;;;;;;4.93;4.10;;;;;;;23.35;60.26;98131.28;5006672;27;104384;-69
2023/06/30 01:20:19;;;;;;;5.95;4.32;;;;;;;23.24;60.55;98145.34;5024146;27;104588;-69
2023/06/30 01:22:51;;;;;;;5.50;4.40;;;;;;;23.09;60.82;98144.69;5018613;27;103197;-69
2023/06/30 01:25:25;;;;;;;4.82;4.03;;;;;;;22.57;62.04;98139.06;5011015;27;102800;-69
2023/06/30 01:27:54;;;;;;;6.93;4.57;;;;;;;22.48;62.49;98144.59;5007626;27;102931;-69
2023/06/30 01:30:22;;;;;;;6.55;4.63;;;;;;;22.21;63.27;98148.19;5018873;27;104088;-70
2023/06/30 01:32:54;;;;;;;6.03;4.50;;;;;;;22.24;63.34;98149.63;5003394;27;104302;-70
2023/06/30 01:35:23;;;;;;;5.07;3.63;;;;;;;22.78;61.62;98133.59;5020694;27;102609;-70
2023/06/30 01:37:53;;;;;;;5.43;4.35;;;;;;;22.66;61.81;98148.66;5005335;27;104255;-70
2023/06/30 01:40:23;;;;;;;6.13;4.55;;;;;;;22.03;63.64;98149.72;5022386;27;103373;-70
2023/06/30 01:42:55;;;;;;;8.00;4.30;;;;;;;22.03;63.98;98155.09;5011315;27;103200;-70
2023/06/30 01:45:28;;;;;;;4.88;3.92;;;;;;;22.27;63.34;98147.38;5021757;27;102944;-70
2023/06/30 01:47:59;;;;;;;3.90;3.42;;;;;;;22.85;61.32;98134.47;5006957;27;102738;-70
2023/06/30 01:50:29;;;;;;;2.70;2.50;;;;;;;23.18;59.35;98121.91;5006067;27;103516;-70
2023/06/30 01:52:57;;;;;;;4.77;3.13;;;;;;;23.43;59.68;98123.03;5008863;27;104333;-70
2023/06/30 01:55:27;;;;;;;3.30;2.95;;;;;;;23.45;58.50;98126.34;5014876;27;103084;-70
2023/06/30 01:57:55;;;;;;;6.67;4.10;;;;;;;23.06;60.71;98126.22;5031556;27;104262;-70
2023/06/30 02:00:23;;;;;;;6.57;4.65;;;;;;;22.39;63.43;98123.44;5008207;27;103332;-70
2023/06/30 02:02:51;;;;;;;7.80;4.90;;;;;;;22.00;64.57;98124.06;5020886;27;103207;-70
2023/06/30 02:05:18;;;;;;;5.10;4.53;;;;;;;21.79;65.21;98121.38;5008104;27;102722;-70
2023/06/30 02:07:46;;;;;;;5.47;4.82;;;;;;;21.66;66.11;98123.97;5014678;27;104131;-70
2023/06/30 02:10:16;;;;;;;5.80;4.40;;;;;;;21.72;66.23;98121.34;5009734;27;104197;-70
2023/06/30 02:12:47;;;;;;;6.45;5.00;;;;;;;21.42;66.65;98124.38;5010525;27;104228;-70
2023/06/30 02:15:15;;;;;;;5.82;4.60;;;;;;;21.59;66.61;98123.91;5010540;27;103211;-70
2023/06/30 02:17:43;;;;;;;7.43;5.00;;;;;;;21.25;67.71;98129.16;5012522;27;104160;-69
2023/06/30 02:20:13;;;;;;;7.38;4.55;;;;;;;21.79;65.52;98121.38;5015899;27;106126;-70
2023/06/30 02:22:41;;;;;;;4.82;4.28;;;;;;;22.27;63.81;98122.34;5027163;27;104123;-69
2023/06/30 02:25:11;;;;;;;5.28;4.32;;;;;;;22.42;63.11;98126.59;5008549;27;104092;-70
2023/06/30 02:27:39;;;;;;;5.28;4.78;;;;;;;22.19;64.01;98126.03;5024672;27;103790;-70
2023/06/30 02:30:10;;;;;;;5.35;4.20;;;;;;;22.33;63.43;98130.47;5013283;27;104158;-70
2023/06/30 02:32:38;;;;;;;4.40;3.85;;;;;;;22.43;63.00;98130.91;5010472;27;103405;-70
2023/06/30 02:35:07;;;;;;;5.82;4.40;;;;;;;22.45;62.43;98123.50;5019632;27;102821;-70
2023/06/30 02:37:35;;;;;;;3.13;2.83;;;;;;;22.74;60.58;98121.56;5011438;27;103999;-70
2023/06/30 02:40:04;;;;;;;3.60;3.30;;;;;;;22.85;60.71;98123.69;5006755;27;104082;-70
2023/06/30 02:42:32;;;;;;;2.97;2.78;;;;;;;22.94;60.25;98123.28;5012836;27;105588;-70
2023/06/30 02:45:00;;;;;;;4.97;4.47;;;;;;;22.88;62.95;98128.66;5013223;27;102912;-70
2023/06/30 02:47:29;;;;;;;6.07;4.30;;;;;;;22.91;62.80;98139.03;5007176;27;104104;-70
2023/06/30 02:49:57;;;;;;;4.40;4.00;;;;;;;22.82;63.25;98129.47;5002975;27;103190;-70
2023/06/30 02:52:27;;;;;;;4.72;4.18;;;;;;;22.82;62.89;98137.56;5010457;27;103534;-70
2023/06/30 02:54:55;;;;;;;5.60;4.67;;;;;;;22.30;65.74;98133.53;5010660;27;103078;-70
2023/06/30 02:57:23;;;;;;;5.55;5.00;;;;;;;21.59;68.10;98128.44;5012934;27;102922;-70
2023/06/30 02:59:51;;;;;;;4.35;3.95;;;;;;;22.30;65.37;98130.03;5008280;27;104001;-70
2023/06/30 03:02:19;;;;;;;6.53;4.90;;;;;;;22.04;66.26;98136.06;5005646;27;103238;-70
2023/06/30 03:04:51;;;;;;;5.60;5.10;;;;;;;22.12;66.21;98133.22;5007554;27;102764;-70
2023/06/30 03:07:19;;;;;;;3.75;3.45;;;;;;;22.46;64.85;98127.84;5007542;27;103876;-70
2023/06/30 03:09:46;;;;;;;6.40;4.90;;;;;;;22.11;66.12;98126.19;5007488;27;104554;-70
2023/06/30 03:12:14;;;;;;;5.75;5.10;;;;;;;21.95;67.09;98126.50;5013935;27;104356;-70
2023/06/30 03:14:42;;;;;;;5.50;4.57;;;;;;;22.20;66.20;98118.81;5006442;27;103064;-70
2023/06/30 03:17:11;;;;;;;4.82;4.43;;;;;;;22.42;64.79;98115.81;5009104;27;104189;-70
2023/06/30 03:19:39;;;;;;;4.68;4.28;;;;;;;22.58;63.74;98108.41;5005283;27;104352;-70
2023/06/30 03:22:09;;;;;;;5.53;4.90;;;;;;;22.14;66.00;98100.75;5016359;27;104114;-69
2023/06/30 03:24:38;;;;;;;6.50;4.75;;;;;;;22.19;65.94;98096.44;5009679;27;103387;-71
2023/06/30 03:27:08;;;;;;;4.88;4.45;;;;;;;22.35;64.85;98097.97;5014155;27;103972;-70
2023/06/30 03:29:36;;;;;;;6.30;4.40;;;;;;;22.03;67.08;98091.38;5010254;27;103983;-71
2023/06/30 03:32:07;;;;;;;5.15;4.35;;;;;;;21.76;67.64;98093.03;5026902;27;102794;-73
2023/06/30 03:34:38;;;;;;;5.73;4.67;;;;;;;21.97;66.72;98097.56;5025907;27;103905;-73
2023/06/30 03:37:06;;;;;;;5.10;4.60;;;;;;;21.62;68.20;98093.94;5019477;27;103361;-72
2023/06/30 03:39:35;;;;;;;4.90;4.45;;;;;;;21.96;66.39;98090.50;5002475;27;105648;-74
2023/06/30 03:42:03;;;;;;;4.13;3.72;;;;;;;22.10;66.40;98096.78;5016769;27;105299;-73
2023/06/30 03:44:31;;;;;;;4.78;4.28;;;;;;;22.23;64.93;98091.50;5005703;27;102904;-74
2023/06/30 03:46:59;;;;;;;5.20;4.70;;;;;;;22.18;65.60;98094.78;5027986;27;103915;-74
2023/06/30 03:49:28;;;;;;;5.27;4.73;;;;;;;21.56;68.52;98093.91;5010721;27;103806;-75
2023/06/30 03:51:56;;;;;;;4.85;4.40;;;;;;;21.91;67.17;98090.25;5017237;27;104266;-74
2023/06/30 03:54:24;;;;;;;4.27;3.90;;;;;;;22.10;66.20;98086.88;5027442;27;102972;-74
2023/06/30 03:56:54;;;;;;;4.60;4.20;;;;;;;22.23;64.73;98095.00;5011554;27;103726;-74
2023/06/30 03:59:22;;;;;;;5.57;4.50;;;;;;;22.15;66.55;98097.84;5012139;27;103466;-74
2023/06/30 04:01:50;;;;;;;3.88;3.58;;;;;;;22.25;65.16;98100.19;5028012;27;103288;-74
2023/06/30 04:04:18;;;;;;;5.30;4.60;;;;;;;22.15;66.20;98103.22;5023223;27;103007;-74
2023/06/30 04:06:47;;;;;;;5.03;4.45;;;;;;;21.99;66.84;98100.88;5022289;27;103171;-75
2023/06/30 04:09:15;;;;;;;4.00;3.60;;;;;;;22.05;66.84;98100.09;5031725;27;104038;-76
2023/06/30 04:11:43;;;;;;;5.15;4.55;;;;;;;22.26;66.30;98102.69;5015064;27;104305;-75
2023/06/30 04:14:12;;;;;;;5.47;4.85;;;;;;;22.11;66.98;98110.06;5026027;27;105083;-72
2023/06/30 04:16:40;;;;;;;4.38;3.97;;;;;;;22.09;67.42;98106.72;5023340;27;103750;-72
2023/06/30 04:19:08;;;;;;;6.32;4.60;;;;;;;22.27;66.78;98103.50;5027300;27;103240;-73
2023/06/30 04:21:36;;;;;;;3.10;2.90;;;;;;;22.52;64.91;98092.03;5024782;27;103182;-73
2023/06/30 04:24:07;;;;;;;7.38;5.13;;;;;;;21.75;68.63;98103.97;5030902;27;102709;-73
2023/06/30 04:26:35;;;;;;;5.45;4.95;;;;;;;21.84;68.72;98097.41;5027046;27;102656;-73
2023/06/30 04:29:03;;;;;;;6.55;5.18;;;;;;;21.61;69.57;98096.84;5023445;27;103823;-73
2023/06/30 04:31:32;;;;;;;5.82;4.97;;;;;;;21.70;68.74;98106.41;5008754;27;104201;-72
2023/06/30 04:34:00;;;;;;;4.80;4.40;;;;;;;21.97;67.94;98104.78;5028434;27;102857;-73
2023/06/30 04:36:29;;;;;;;5.47;4.97;;;;;;;22.09;67.04;98101.31;5030821;27;104337;-73
2023/06/30 04:38:57;;;;;;;3.60;3.30;;;;;;;22.53;64.87;98100.97;5024754;27;103278;-73
2023/06/30 04:41:25;;;;;;;3.95;3.42;;;;;;;22.74;64.58;98108.94;5027985;27;103304;-73
2023/06/30 04:43:54;;;;;;;5.60;4.80;;;;;;;22.79;65.18;98111.03;5025769;27;102907;-73
2023/06/30 04:46:24;;;;;;;6.27;4.80;;;;;;;22.86;64.85;98111.88;5028703;27;103269;-72
2023/06/30 04:48:55;;;;;;;7.03;5.65;;;;;;;22.53;66.60;98109.88;5031317;27;103676;-72
2023/06/30 04:51:23;;;;;;;5.97;4.93;;;;;;;22.51;67.14;98109.22;5027584;27;103258;-73
2023/06/30 04:53:51;;;;;;;5.68;5.07;;;;;;;22.58;66.78;98111.09;5004509;27;102978;-72
2023/06/30 04:56:19;;;;;;;6.00;5.40;;;;;;;22.65;66.51;98103.94;5028316;27;103949;-72
2023/06/30 04:58:51;;;;;;;5.38;4.90;;;;;;;22.61;66.68;98105.31;5026726;27;103249;-72
2023/06/30 05:01:18;;;;;;;4.70;4.30;;;;;;;22.82;65.63;98099.88;5030217;27;103209;-73
2023/06/30 05:03:47;;;;;;;5.57;5.05;;;;;;;22.62;66.32;98101.63;5026410;27;102953;-73
2023/06/30 05:06:17;;;;;;;6.47;5.40;;;;;;;22.34;67.42;98110.56;5030574;27;104031;-72
2023/06/30 05:08:45;;;;;;;5.25;4.40;;;;;;;22.67;66.31;98107.25;5025719;27;103263;-75
2023/06/30 05:11:13;;;;;;;3.80;3.40;;;;;;;22.94;65.79;98117.06;5007914;27;104128;-74
2023/06/30 05:13:43;;;;;;;4.00;3.70;;;;;;;23.13;63.84;98112.78;5027081;27;102888;-75
2023/06/30 05:16:13;;;;;;;5.90;5.03;;;;;;;23.01;65.02;98113.38;5027172;27;102691;-74
2023/06/30 05:18:40;;;;;;;7.65;5.32;;;;;;;22.77;66.19;98115.78;5022884;27;103296;-75
2023/06/30 05:21:09;;;;;;;4.13;3.72;;;;;;;23.04;64.54;98112.16;5019490;27;103334;-75
2023/06/30 05:23:38;;;;;;;5.68;4.45;;;;;;;23.10;64.86;98117.53;5025783;27;102808;-75
2023/06/30 05:26:06;;;;;;;6.43;4.75;;;;;;;23.20;64.93;98113.63;5020589;27;104085;-75
2023/06/30 05:28:36;;;;;;;4.22;3.85;;;;;;;23.29;63.71;98126.69;5019021;27;104231;-74
2023/06/30 05:31:03;;;;;;;6.18;5.00;;;;;;;23.36;65.58;98124.00;5017824;27;103377;-73
2023/06/30 05:33:31;;;;;;;6.72;5.18;;;;;;;23.15;66.82;98130.41;5011196;27;103192;-73
2023/06/30 05:35:59;;;;;;;6.93;5.28;;;;;;;23.10;67.81;98120.22;5027948;27;104093;-72
2023/06/30 05:38:27;;;;;;;6.80;6.10;;;;;;;22.84;69.17;98122.03;5010205;27;104274;-72
2023/06/30 05:40:57;;;;;;;6.65;4.97;;;;;;;22.87;69.61;98116.25;5024184;27;103476;-72
2023/06/30 05:43:25;;;;;;;5.80;5.10;;;;;;;22.99;69.43;98120.81;5030310;27;102869;-72
2023/06/30 05:45:52;;;;;;;6.25;5.53;;;;;;;22.89;70.23;98130.31;5031857;27;102908;-71
2023/06/30 05:48:21;;;;;;;7.13;5.25;;;;;;;23.01;70.40;98132.25;5030961;27;103245;-71
2023/06/30 05:50:49;;;;;;;5.50;5.00;;;;;;;22.90;71.95;98134.69;5026307;27;103207;-71
2023/06/30 05:53:16;;;;;;;8.55;6.43;;;;;;;22.89;71.68;98141.09;5017472;27;103991;-72
2023/06/30 05:55:47;;;;;;;6.32;5.72;;;;;;;23.02;71.36;98143.81;5033072;27;105179;-71
2023/06/30 05:58:16;;;;;;;6.60;5.90;;;;;;;22.98;72.27;98150.66;5010683;27;103489;-72
2023/06/30 06:00:44;;;;;;;6.20;5.40;;;;;;;22.93;73.69;98142.38;5015462;27;103974;-72
2023/06/30 06:03:11;;;;;;;8.50;6.88;;;;;;;22.95;73.80;98151.06;5029018;27;102800;-72
2023/06/30 06:05:40;;;;;;;6.97;5.82;;;;;;;23.05;73.96;98154.19;5030282;27;103958;-71
2023/06/30 06:08:10;;;;;;;8.55;7.10;;;;;;;22.91;75.52;98163.25;5014756;27;103916;-70
2023/06/30 06:10:38;;;;;;;6.73;5.90;;;;;;;22.99;74.22;98160.38;5031623;27;103171;-72
2023/06/30 06:13:06;;;;;;;8.93;6.00;;;;;;;23.04;74.15;98158.78;5027325;27;102650;-72
2023/06/30 06:15:37;;;;;;;8.68;7.05;;;;;;;22.80;75.51;98171.91;5011792;27;104455;-71
2023/06/30 06:18:05;;;;;;;7.68;6.72;;;;;;;22.56;76.79;98159.78;5026022;27;103312;-71
2023/06/30 06:20:33;;;;;;;8.25;7.38;;;;;;;22.70;75.77;98163.38;5025633;27;103198;-71
2023/06/30 06:23:01;;;;;;;5.38;4.88;;;;;;;22.99;75.01;98161.22;5028207;27;102666;-72
2023/06/30 06:25:29;;;;;;;5.30;4.60;;;;;;;23.18;74.28;98166.88;5032685;27;102699;-72
2023/06/30 06:27:57;;;;;;;7.50;6.43;;;;;;;23.14;74.95;98171.84;5029739;27;103455;-71
2023/06/30 06:30:26;;;;;;;5.72;5.00;;;;;;;23.29;74.00;98167.13;5031510;27;103253;-72
2023/06/30 06:32:55;;;;;;;5.28;4.78;;;;;;;23.39;74.17;98178.38;5008208;27;103144;-71
2023/06/30 06:35:23;;;;;;;7.50;6.40;;;;;;;23.14;75.45;98177.22;5030802;27;102706;-72
2023/06/30 06:37:51;;;;;;;6.03;5.53;;;;;;;23.19;75.75;98177.44;5027337;27;104266;-71
2023/06/30 06:40:24;;;;;;;4.72;4.32;;;;;;;23.44;75.20;98173.19;5017723;27;102989;-72
2023/06/30 06:42:54;;;;;;;5.20;4.67;;;;;;;23.60;74.92;98175.50;5030603;27;102625;-72
2023/06/30 06:45:27;;;;;;;9.82;8.10;;;;;;;23.26;74.97;98181.00;5007273;27;103767;-74
2023/06/30 06:48:19;;;;;;;6.25;5.65;;;;;;;23.40;75.16;98187.28;5010170;27;103965;-72
2023/06/30 06:50:48;;;;;;;7.88;7.13;;;;;;;23.37;74.64;98188.50;5028254;27;103241;-72
2023/06/30 06:53:22;;;;;;;6.50;5.90;;;;;;;23.54;74.75;98183.56;5032513;27;102911;-71
2023/06/30 06:55:51;;;;;;;6.03;5.53;;;;;;;23.79;74.64;98183.81;5013326;27;104150;-71
2023/06/30 06:58:20;;;;;;;6.80;6.00;;;;;;;23.93;73.42;98188.16;5032055;27;103318;-71
2023/06/30 07:00:49;;;;;;;7.40;6.68;;;;;;;23.90;74.69;98188.59;5013407;27;104211;-71
2023/06/30 07:03:19;;;;;;;7.32;6.63;;;;;;;23.93;74.56;98191.69;5028415;27;102663;-71
2023/06/30 07:05:50;;;;;;;8.30;7.50;;;;;;;23.85;75.26;98185.69;5017676;27;104338;-71
2023/06/30 07:08:19;;;;;;;9.15;8.25;;;;;;;23.49;76.61;98189.59;5032215;27;103277;-71
2023/06/30 07:10:47;;;;;;;9.45;8.50;;;;;;;23.48;77.81;98185.22;5025683;27;104510;-72
2023/06/30 07:13:18;;;;;;;7.82;7.03;;;;;;;23.80;76.29;98182.78;5033866;27;102673;-71
2023/06/30 07:15:50;;;;;;;9.85;8.90;;;;;;;23.71;77.37;98186.72;5028583;27;102600;-72
2023/06/30 07:18:21;;;;;;;8.50;7.60;;;;;;;23.66;78.74;98181.94;5031466;27;103979;-72
2023/06/30 07:20:50;;;;;;;9.35;8.48;;;;;;;23.57;79.77;98186.69;5035322;27;103285;-71
2023/06/30 07:23:18;;;;;;;11.32;10.23;;;;;;;23.27;80.26;98188.03;5035082;27;102880;-71
2023/06/30 07:25:47;;;;;;;10.57;9.48;;;;;;;23.35;78.94;98185.19;5007577;27;102747;-72
2023/06/30 07:28:16;;;;;;;8.75;7.40;;;;;;;23.74;76.10;98194.38;5023682;27;103316;-72
2023/06/30 07:30:46;;;;;;;9.15;8.18;;;;;;;23.80;75.60;98193.56;5026426;27;103478;-72
2023/06/30 07:33:14;;;;;;;12.65;9.95;;;;;;;23.39;77.48;98201.78;5035707;27;102695;-72
2023/06/30 07:35:43;;;;;;;10.17;9.27;;;;;;;23.27;78.73;98204.19;5035544;27;102758;-72
2023/06/30 07:38:12;;;;;;;7.75;7.05;;;;;;;23.72;77.29;98207.25;5035800;27;103289;-72
2023/06/30 07:40:40;;;;;;;11.43;9.73;;;;;;;23.63;75.63;98215.50;5025655;27;103213;-71
2023/06/30 07:43:23;;;;;;;9.83;8.93;;;;;;;23.59;77.15;98216.13;5028496;27;102901;-72
2023/06/30 07:45:50;;;;;;;11.95;10.65;;;;;;;22.77;81.79;98234.25;5012529;27;104095;-72
2023/06/30 07:48:19;;;;;;;9.80;8.85;;;;;;;22.93;81.62;98244.72;5032008;27;103221;-72
2023/06/30 07:50:48;;;;;;;9.55;8.50;;;;;;;22.74;80.80;98242.72;5030121;27;103229;-72
2023/06/30 07:53:34;;;;;;;8.10;7.38;;;;;;;22.79;81.25;98248.38;5030229;27;102741;-72
2023/06/30 07:56:02;;;;;;;9.63;8.73;;;;;;;22.88;78.84;98249.84;5010259;27;104009;-72
2023/06/30 07:58:31;;;;;;;11.63;9.90;;;;;;;22.36;81.21;98253.00;5024187;27;103312;-72
2023/06/30 08:00:59;;;;;;;12.18;10.90;;;;;;;22.30;80.76;98251.94;5012830;27;104884;-72
2023/06/30 08:03:27;;;;;;;13.05;11.68;;;;;;;22.13;81.40;98253.25;5033134;27;102895;-72
2023/06/30 08:05:57;;;;;;;16.17;12.57;;;;;;;22.22;81.57;98257.47;5011974;27;103001;-72
2023/06/30 08:08:26;;;;;;;16.47;14.63;;;;;;;22.26;78.10;98253.34;5031749;27;103300;-72
2023/06/30 08:10:54;;;;;;;15.65;14.02;;;;;;;22.01;79.50;98254.78;5030242;27;103182;-72
2023/06/30 08:13:22;;;;;;;17.98;16.08;;;;;;;21.77;81.71;98258.69;5033677;27;102632;-72
2023/06/30 08:15:50;;;;;;;16.00;14.40;;;;;;;22.29;79.81;98263.72;5024731;27;103813;-72
2023/06/30 08:18:18;;;;;;;16.88;15.07;;;;;;;22.17;80.71;98259.91;5030599;27;103879;-72
2023/06/30 08:21:02;;;;;;;16.88;14.90;;;;;;;22.46;80.35;98267.78;5030243;27;103171;-72
2023/06/30 08:23:31;;;;;;;17.73;15.77;;;;;;;22.43;80.92;98265.47;5035990;27;102899;-73
2023/06/30 08:25:59;;;;;;;17.53;15.73;;;;;;;22.48;80.22;98273.78;5010265;27;103707;-73
2023/06/30 08:28:29;;;;;;;19.02;16.83;;;;;;;21.91;83.35;98270.44;5031885;27;103730;-73
2023/06/30 08:30:57;;;;;;;18.23;16.38;;;;;;;21.67;83.85;98273.47;5011690;27;103153;-72
2023/06/30 08:33:27;;;;;;;18.50;16.60;;;;;;;21.58;86.35;98269.22;5023342;27;103121;-72
2023/06/30 08:36:09;;;;;;;19.13;16.97;;;;;;;21.38;87.27;98282.44;5012839;27;103871;-72
2023/06/30 08:38:37;;;;;;;16.42;14.75;;;;;;;21.82;86.21;98279.59;5022445;27;104027;-73
2023/06/30 08:41:05;;;;;;;19.00;17.00;;;;;;;21.91;85.69;98281.19;5025418;27;103507;-73
2023/06/30 08:43:33;;;;;;;20.53;17.20;;;;;;;21.76;86.22;98266.94;5007011;27;102847;-73
2023/06/30 08:46:05;;;;;;;17.48;15.68;;;;;;;21.91;86.03;98273.13;5025089;27;103987;-72
2023/06/30 08:48:33;;;;;;;18.67;16.67;;;;;;;21.82;87.12;98279.59;5011350;27;104292;-72
2023/06/30 08:51:02;;;;;;;18.65;16.65;;;;;;;21.92;86.97;98282.84;5008494;27;103296;-72
2023/06/30 08:53:33;;;;;;;20.80;17.27;;;;;;;21.58;88.83;98280.81;5025602;27;103064;-72
2023/06/30 08:56:01;;;;;;;20.27;18.08;;;;;;;21.51;88.70;98276.38;5027448;27;104000;-72
2023/06/30 08:58:29;;;;;;;19.13;16.92;;;;;;;21.55;90.34;98275.81;5022270;27;103709;-72
2023/06/30 09:00:57;;;;;;;18.43;16.53;;;;;;;21.86;88.10;98278.22;5026327;27;104098;-72
2023/06/30 09:03:26;;;;;;;17.80;15.97;;;;;;;22.02;86.36;98267.22;5030600;27;102709;-72
2023/06/30 09:05:57;;;;;;;17.20;15.47;;;;;;;21.97;88.32;98269.66;5010555;27;102797;-72
2023/06/30 09:08:32;;;;;;;17.30;15.25;;;;;;;22.17;86.64;98265.28;5028301;27;103262;-74
2023/06/30 09:11:04;;;;;;;16.00;14.30;;;;;;;22.42;85.03;98260.31;5020004;27;103479;-72
2023/06/30 09:13:33;;;;;;;16.85;15.07;;;;;;;22.64;83.26;98269.19;5024473;27;102947;-71
2023/06/30 09:16:06;;;;;;;18.70;16.73;;;;;;;22.43;84.76;98264.63;5028181;27;104276;-71
2023/06/30 09:18:34;;;;;;;17.00;15.30;;;;;;;22.41;84.80;98266.72;5023577;27;103204;-73
2023/06/30 09:21:04;;;;;;;15.00;13.48;;;;;;;22.67;83.90;98266.94;5028743;27;103196;-72
2023/06/30 09:23:34;;;;;;;15.70;14.07;;;;;;;22.77;82.34;98261.16;5001793;27;103054;-73
2023/06/30 09:26:03;;;;;;;18.85;16.15;;;;;;;22.17;84.92;98254.53;5020027;27;102884;-73
2023/06/30 09:28:35;;;;;;;14.67;13.20;;;;;;;22.55;83.89;98252.31;5026856;27;103732;-73
2023/06/30 09:31:03;;;;;;;16.65;14.77;;;;;;;22.52;83.23;98252.69;5025100;27;103857;-73
2023/06/30 09:33:39;;;;;;;17.10;15.32;;;;;;;22.47;82.79;98257.84;5010997;27;102702;-73
2023/06/30 09:36:07;;;;;;;14.85;13.35;;;;;;;22.63;81.09;98260.22;5008917;27;104558;-72
2023/06/30 09:38:36;;;;;;;14.00;12.50;;;;;;;22.79;82.45;98256.44;5008576;27;103970;-72
2023/06/30 09:41:19;;;;;;;16.05;14.35;;;;;;;22.59;83.67;98253.59;5030616;27;103294;-72
2023/06/30 09:43:48;;;;;;;16.35;14.40;;;;;;;22.65;82.04;98252.00;5009275;27;102610;-72
2023/06/30 09:46:20;;;;;;;12.35;11.15;;;;;;;22.93;81.62;98256.28;5034545;27;103359;-72
2023/06/30 09:48:54;;;;;;;15.27;13.87;;;;;;;23.05;82.37;98253.84;5032699;27;103286;-72
2023/06/30 09:51:23;;;;;;;17.13;15.38;;;;;;;22.52;85.66;98250.00;5029735;27;103120;-73
2023/06/30 09:53:53;;;;;;;14.57;13.05;;;;;;;22.79;82.73;98253.75;5026170;27;102812;-71
2023/06/30 09:56:23;;;;;;;15.25;13.75;;;;;;;23.03;81.59;98250.53;5024943;27;102710;-72
2023/06/30 09:58:56;;;;;;;13.45;12.02;;;;;;;23.30;80.58;98252.31;5025127;27;103678;-74
2023/06/30 10:01:24;;;;;;;13.35;12.05;;;;;;;23.46;80.19;98252.00;5027103;27;103101;-75
2023/06/30 10:03:54;;;;;;;15.93;14.30;;;;;;;23.12;83.30;98252.03;5022411;27;102665;-74
2023/06/30 10:06:25;;;;;;;15.88;14.27;;;;;;;23.05;83.59;98249.31;5013750;27;103633;-74
2023/06/30 10:08:57;;;;;;;13.10;11.80;;;;;;;23.39;80.72;98245.75;5009905;27;103629;-76
2023/06/30 10:11:29;;;;;;;12.00;10.85;;;;;;;23.51;80.10;98248.69;5024470;27;103591;-76
2023/06/30 10:14:00;;;;;;;14.07;12.57;;;;;;;23.43;81.13;98249.72;5020937;27;102730;-73
2023/06/30 10:16:29;;;;;;;18.75;13.77;;;;;;;23.44;79.94;98251.34;5033233;27;102693;-72
2023/06/30 10:19:01;;;;;;;41.45;23.15;;;;;;;23.40;79.24;98250.13;5035641;27;103838;-73
2023/06/30 10:21:29;;;;;;;15.27;13.68;;;;;;;23.32;79.68;98252.97;5030055;27;103499;-73
2023/06/30 10:23:58;;;;;;;15.38;13.77;;;;;;;23.30;79.91;98255.00;5013681;27;102649;-73
2023/06/30 10:26:27;;;;;;;15.50;14.03;;;;;;;23.24;80.51;98261.22;5021473;27;103791;-74
2023/06/30 10:28:56;;;;;;;14.95;13.45;;;;;;;23.57;79.19;98248.72;5035821;27;103242;-74
2023/06/30 10:31:24;;;;;;;16.73;15.03;;;;;;;23.50;80.14;98264.03;5032190;27;103212;-76
2023/06/30 10:33:54;;;;;;;16.05;14.45;;;;;;;23.64;82.21;98256.78;5032660;27;102746;-71
2023/06/30 10:36:26;;;;;;;15.75;14.15;;;;;;;23.77;82.28;98264.09;5028946;27;104006;-72
2023/06/30 10:38:55;;;;;;;16.15;14.55;;;;;;;23.83;81.23;98260.59;5027508;27;103262;-73
2023/06/30 10:41:23;;;;;;;16.80;15.20;;;;;;;23.76;80.76;98257.03;5028920;27;103287;-74
2023/06/30 10:44:08;;;;;;;19.88;17.98;;;;;;;23.27;84.06;98252.72;5021255;27;102625;-76
2023/06/30 10:46:51;;;;;;;17.50;15.83;;;;;;;23.63;80.96;98253.25;5029964;27;103828;-74
2023/06/30 10:49:22;;;;;;;18.65;16.95;;;;;;;23.70;82.46;98253.28;5033127;27;103445;-73
2023/06/30 10:51:51;;;;;;;17.93;16.23;;;;;;;24.14;80.21;98250.88;5026310;27;103275;-74
2023/06/30 10:54:24;;;;;;;16.10;14.60;;;;;;;24.18;80.17;98248.59;5031830;27;102763;-73
2023/06/30 10:56:53;;;;;;;21.25;19.15;;;;;;;23.72;82.85;98250.41;5029746;27;103809;-73
2023/06/30 10:59:24;;;;;;;26.20;23.70;;;;;;;23.43;83.32;98251.56;5009939;27;103266;-73
2023/06/30 11:02:14;;;;;;;23.83;21.45;;;;;;;23.92;81.65;98256.63;5033378;27;103403;-73
2023/06/30 11:04:43;;;;;;;24.25;21.98;;;;;;;23.70;82.51;98258.69;5026762;27;102805;-73
2023/06/30 11:07:17;;;;;;;26.77;24.13;;;;;;;23.18;82.70;98275.50;5028851;27;103686;-72
2023/06/30 11:10:00;;;;;;;25.10;22.80;;;;;;;23.45;80.85;98269.19;5036756;27;103268;-75
2023/06/30 11:12:54;;;;;;;24.40;22.05;;;;;;;23.65;80.79;98275.47;5021131;27;103198;-70
2023/06/30 11:15:38;;;;;;;23.80;21.47;;;;;;;23.28;80.42;98270.56;5027490;27;102950;-70
2023/06/30 11:18:11;;;;;;;31.07;28.10;;;;;;;22.64;84.31;98258.41;5026835;27;102889;-70
2023/06/30 11:20:57;;;;;;;29.50;26.70;;;;;;;22.96;80.78;98239.72;5014523;27;103901;-69
2023/06/30 11:23:28;;;;;;;27.63;24.97;;;;;;;23.48;80.75;98239.13;5023886;27;103478;-69
2023/06/30 11:25:58;;;;;;;25.23;22.93;;;;;;;23.59;80.81;98235.84;5023872;27;102715;-70
2023/06/30 11:28:28;;;;;;;24.35;21.98;;;;;;;23.89;78.47;98241.69;5015422;27;104254;-70
2023/06/30 11:31:01;;;;;;;28.90;26.17;;;;;;;23.71;82.21;98241.47;5027091;27;103747;-70